首页
METAR-TAF:

METAR-TAF

机场 :

莱克兰, 佛罗里达州, 美国

纬度: 27-59N, 经度: 082-01W, 海拔: 43米

当前天气观测

该预报发布于52分钟前的15:50 UTC
静风
温度 21°C
湿度 43%
气压 1018 hPa
能見度: 16.1公里
天空无云

METAR: KLAL 021550Z 00000KT 10SM SKC 21/08 A3005

时间: 12:42 (16:42 UTC)

预报

该预报发布于5小时和9分钟前的11:33 UTC
预报有效从02日的 12点(UTC)到 03日的 12点(UTC)
风速6节,风向东北
能見度: 10公里
天空无云
从 02日的 1900点(UTC)
风速7节,风向北转西北
能見度: 10公里
天空无云
从 03日的 0100点(UTC)
风速3节,风向多变
能見度: 10公里
天空无云

TAF: KLAL 021133Z 0212/0312 05006KT P6SM SKC FM021900 33007KT P6SM SKC FM030100 VRB03KT P6SM SKC

超过4000个机场的气象观测和天气预报(METAR&TAF报告)。

可查询的气象台以黄色和红色小点在地图上表示。

将鼠标移到小点上方,可查看气象台名称。

然后点击查看天气观测和预报。

如需切换地图:点击带黑十字的绿色按钮放大地图;点击带横线的绿色按钮缩小地图;或者点击绿色箭头查看邻近地区的地图。


METAR-TAF: